sensor_id;sensor_type;location;lat;lon;timestamp;P1;durP1;ratioP1;P2;durP2;ratioP2
67751;SDS011;54551;51.068;5.826;2023-02-01T00:01:20;14.37;;;4.80;;
67751;SDS011;54551;51.068;5.826;2023-02-01T00:03:46;19.33;;;5.63;;
67751;SDS011;54551;51.068;5.826;2023-02-01T00:06:12;20.90;;;5.43;;
67751;SDS011;54551;51.068;5.826;2023-02-01T00:08:38;21.30;;;5.43;;
67751;SDS011;54551;51.068;5.826;2023-02-01T00:11:04;19.30;;;5.37;;
67751;SDS011;54551;51.068;5.826;2023-02-01T00:13:32;19.87;;;5.30;;
67751;SDS011;54551;51.068;5.826;2023-02-01T00:16:07;14.57;;;4.93;;
67751;SDS011;54551;51.068;5.826;2023-02-01T00:18:43;17.93;;;5.60;;
67751;SDS011;54551;51.068;5.826;2023-02-01T00:21:13;15.27;;;5.17;;
67751;SDS011;54551;51.068;5.826;2023-02-01T00:23:41;19.30;;;4.93;;
67751;SDS011;54551;51.068;5.826;2023-02-01T00:26:10;18.33;;;5.03;;
67751;SDS011;54551;51.068;5.826;2023-02-01T00:28:43;16.50;;;5.27;;
67751;SDS011;54551;51.068;5.826;2023-02-01T00:31:09;21.17;;;6.27;;
67751;SDS011;54551;51.068;5.826;2023-02-01T00:33:35;17.30;;;5.70;;
67751;SDS011;54551;51.068;5.826;2023-02-01T00:36:04;19.90;;;6.03;;
67751;SDS011;54551;51.068;5.826;2023-02-01T00:38:33;17.00;;;5.50;;
67751;SDS011;54551;51.068;5.826;2023-02-01T00:41:02;21.53;;;6.33;;
67751;SDS011;54551;51.068;5.826;2023-02-01T00:43:37;20.90;;;6.33;;
67751;SDS011;54551;51.068;5.826;2023-02-01T00:46:04;16.53;;;5.90;;
67751;SDS011;54551;51.068;5.826;2023-02-01T00:48:30;20.20;;;6.43;;
67751;SDS011;54551;51.068;5.826;2023-02-01T00:51:00;20.27;;;6.10;;
67751;SDS011;54551;51.068;5.826;2023-02-01T00:53:27;22.40;;;6.47;;
67751;SDS011;54551;51.068;5.826;2023-02-01T00:55:53;17.03;;;5.53;;
67751;SDS011;54551;51.068;5.826;2023-02-01T00:58:19;16.87;;;6.53;;
67751;SDS011;54551;51.068;5.826;2023-02-01T01:00:45;25.53;;;6.90;;
67751;SDS011;54551;51.068;5.826;2023-02-01T01:03:11;19.80;;;6.90;;
67751;SDS011;54551;51.068;5.826;2023-02-01T01:05:44;19.60;;;6.40;;
67751;SDS011;54551;51.068;5.826;2023-02-01T01:08:11;20.30;;;7.10;;
67751;SDS011;54551;51.068;5.826;2023-02-01T01:10:37;18.47;;;6.43;;
67751;SDS011;54551;51.068;5.826;2023-02-01T01:13:03;21.93;;;6.33;;
67751;SDS011;54551;51.068;5.826;2023-02-01T01:15:30;17.90;;;7.03;;
67751;SDS011;54551;51.068;5.826;2023-02-01T01:17:56;19.57;;;7.10;;
67751;SDS011;54551;51.068;5.826;2023-02-01T01:20:21;24.13;;;6.77;;
67751;SDS011;54551;51.068;5.826;2023-02-01T01:22:47;18.40;;;7.00;;
67751;SDS011;54551;51.068;5.826;2023-02-01T01:25:13;17.50;;;6.03;;
67751;SDS011;54551;51.068;5.826;2023-02-01T01:27:40;19.20;;;6.80;;
67751;SDS011;54551;51.068;5.826;2023-02-01T01:30:09;20.87;;;6.20;;
67751;SDS011;54551;51.068;5.826;2023-02-01T01:32:35;20.93;;;6.77;;
67751;SDS011;54551;51.068;5.826;2023-02-01T01:35:01;23.30;;;7.17;;
67751;SDS011;54551;51.068;5.826;2023-02-01T01:37:27;24.97;;;7.27;;
67751;SDS011;54551;51.068;5.826;2023-02-01T01:39:53;20.37;;;6.93;;
67751;SDS011;54551;51.068;5.826;2023-02-01T01:42:21;17.40;;;6.77;;
67751;SDS011;54551;51.068;5.826;2023-02-01T01:45:04;19.00;;;7.33;;
67751;SDS011;54551;51.068;5.826;2023-02-01T01:47:43;24.80;;;7.10;;
67751;SDS011;54551;51.068;5.826;2023-02-01T01:50:14;19.20;;;6.27;;
67751;SDS011;54551;51.068;5.826;2023-02-01T01:52:46;19.90;;;6.73;;
67751;SDS011;54551;51.068;5.826;2023-02-01T01:55:14;21.43;;;6.70;;
67751;SDS011;54551;51.068;5.826;2023-02-01T01:57:44;20.50;;;6.37;;
67751;SDS011;54551;51.068;5.826;2023-02-01T02:00:19;18.37;;;6.87;;
67751;SDS011;54551;51.068;5.826;2023-02-01T02:02:47;21.87;;;6.87;;
67751;SDS011;54551;51.068;5.826;2023-02-01T02:05:18;22.83;;;7.10;;
67751;SDS011;54551;51.068;5.826;2023-02-01T02:07:46;18.90;;;6.33;;
67751;SDS011;54551;51.068;5.826;2023-02-01T02:10:14;22.77;;;6.87;;
67751;SDS011;54551;51.068;5.826;2023-02-01T02:12:42;25.23;;;7.57;;
67751;SDS011;54551;51.068;5.826;2023-02-01T02:15:11;19.30;;;7.40;;
67751;SDS011;54551;51.068;5.826;2023-02-01T02:34:57;23.63;;;7.40;;
67751;SDS011;54551;51.068;5.826;2023-02-01T02:37:55;18.73;;;6.97;;
67751;SDS011;54551;51.068;5.826;2023-02-01T02:40:45;18.53;;;6.47;;
67751;SDS011;54551;51.068;5.826;2023-02-01T02:46:16;17.33;;;6.10;;
67751;SDS011;54551;51.068;5.826;2023-02-01T02:49:12;23.23;;;6.73;;
67751;SDS011;54551;51.068;5.826;2023-02-01T02:51:46;22.43;;;6.17;;
67751;SDS011;54551;51.068;5.826;2023-02-01T02:54:33;23.37;;;5.97;;
67751;SDS011;54551;51.068;5.826;2023-02-01T02:57:14;22.27;;;6.27;;
67751;SDS011;54551;51.068;5.826;2023-02-01T03:00:06;19.03;;;6.07;;
67751;SDS011;54551;51.068;5.826;2023-02-01T03:02:54;25.47;;;7.23;;
67751;SDS011;54551;51.068;5.826;2023-02-01T03:05:41;21.53;;;5.83;;
67751;SDS011;54551;51.068;5.826;2023-02-01T03:08:15;22.20;;;6.17;;
67751;SDS011;54551;51.068;5.826;2023-02-01T03:21:38;23.77;;;6.83;;
67751;SDS011;54551;51.068;5.826;2023-02-01T03:24:19;18.97;;;5.20;;
67751;SDS011;54551;51.068;5.826;2023-02-01T03:26:51;23.70;;;6.17;;
67751;SDS011;54551;51.068;5.826;2023-02-01T03:29:25;19.37;;;5.87;;
67751;SDS011;54551;51.068;5.826;2023-02-01T03:31:55;20.87;;;5.53;;
67751;SDS011;54551;51.068;5.826;2023-02-01T03:34:21;16.67;;;5.77;;
67751;SDS011;54551;51.068;5.826;2023-02-01T03:36:49;19.60;;;5.70;;
67751;SDS011;54551;51.068;5.826;2023-02-01T03:42:20;21.97;;;5.77;;
67751;SDS011;54551;51.068;5.826;2023-02-01T03:47:35;17.20;;;5.00;;
67751;SDS011;54551;51.068;5.826;2023-02-01T03:50:06;25.07;;;5.73;;
67751;SDS011;54551;51.068;5.826;2023-02-01T03:55:25;27.53;;;5.40;;
67751;SDS011;54551;51.068;5.826;2023-02-01T04:00:53;19.73;;;4.80;;
67751;SDS011;54551;51.068;5.826;2023-02-01T04:03:24;15.30;;;5.07;;
67751;SDS011;54551;51.068;5.826;2023-02-01T04:05:51;16.43;;;4.67;;
67751;SDS011;54551;51.068;5.826;2023-02-01T04:08:19;17.60;;;4.63;;
67751;SDS011;54551;51.068;5.826;2023-02-01T04:10:46;22.10;;;4.87;;
67751;SDS011;54551;51.068;5.826;2023-02-01T04:13:12;18.77;;;4.43;;
67751;SDS011;54551;51.068;5.826;2023-02-01T04:15:38;15.13;;;4.40;;
67751;SDS011;54551;51.068;5.826;2023-02-01T04:18:04;17.00;;;5.27;;
67751;SDS011;54551;51.068;5.826;2023-02-01T04:20:31;15.77;;;4.40;;
67751;SDS011;54551;51.068;5.826;2023-02-01T04:22:57;21.90;;;4.07;;
67751;SDS011;54551;51.068;5.826;2023-02-01T04:25:22;28.27;;;5.23;;
67751;SDS011;54551;51.068;5.826;2023-02-01T04:27:49;20.80;;;4.67;;
67751;SDS011;54551;51.068;5.826;2023-02-01T04:30:15;21.83;;;5.13;;
67751;SDS011;54551;51.068;5.826;2023-02-01T04:32:41;20.57;;;4.83;;
67751;SDS011;54551;51.068;5.826;2023-02-01T04:35:07;16.03;;;4.77;;
67751;SDS011;54551;51.068;5.826;2023-02-01T04:37:33;21.50;;;5.20;;
67751;SDS011;54551;51.068;5.826;2023-02-01T04:40:00;15.90;;;4.50;;
67751;SDS011;54551;51.068;5.826;2023-02-01T04:42:26;17.17;;;4.60;;
67751;SDS011;54551;51.068;5.826;2023-02-01T04:44:52;26.90;;;5.20;;
67751;SDS011;54551;51.068;5.826;2023-02-01T04:47:18;19.63;;;5.30;;
67751;SDS011;54551;51.068;5.826;2023-02-01T04:49:43;18.80;;;4.60;;
67751;SDS011;54551;51.068;5.826;2023-02-01T04:52:09;17.63;;;4.43;;
67751;SDS011;54551;51.068;5.826;2023-02-01T04:54:35;21.27;;;5.27;;
67751;SDS011;54551;51.068;5.826;2023-02-01T04:57:01;21.07;;;5.33;;
67751;SDS011;54551;51.068;5.826;2023-02-01T04:59:27;17.07;;;4.60;;
67751;SDS011;54551;51.068;5.826;2023-02-01T05:01:54;21.53;;;5.00;;
67751;SDS011;54551;51.068;5.826;2023-02-01T05:04:19;18.83;;;4.80;;
67751;SDS011;54551;51.068;5.826;2023-02-01T05:06:45;21.67;;;5.20;;
67751;SDS011;54551;51.068;5.826;2023-02-01T05:09:11;14.50;;;4.23;;
67751;SDS011;54551;51.068;5.826;2023-02-01T05:11:37;19.33;;;4.40;;
67751;SDS011;54551;51.068;5.826;2023-02-01T05:14:22;20.13;;;4.43;;
67751;SDS011;54551;51.068;5.826;2023-02-01T05:16:48;20.13;;;3.90;;
67751;SDS011;54551;51.068;5.826;2023-02-01T05:19:14;21.50;;;5.30;;
67751;SDS011;54551;51.068;5.826;2023-02-01T05:21:39;19.10;;;4.57;;
67751;SDS011;54551;51.068;5.826;2023-02-01T05:24:07;23.67;;;5.20;;
67751;SDS011;54551;51.068;5.826;2023-02-01T05:26:39;18.70;;;4.07;;
67751;SDS011;54551;51.068;5.826;2023-02-01T05:29:06;18.57;;;4.00;;
67751;SDS011;54551;51.068;5.826;2023-02-01T05:31:33;21.07;;;4.67;;
67751;SDS011;54551;51.068;5.826;2023-02-01T05:33:59;19.80;;;5.23;;
67751;SDS011;54551;51.068;5.826;2023-02-01T05:36:25;23.23;;;5.50;;
67751;SDS011;54551;51.068;5.826;2023-02-01T05:38:51;18.13;;;4.53;;
67751;SDS011;54551;51.068;5.826;2023-02-01T05:41:17;20.90;;;5.70;;
67751;SDS011;54551;51.068;5.826;2023-02-01T05:43:43;20.63;;;4.23;;
67751;SDS011;54551;51.068;5.826;2023-02-01T05:46:09;21.27;;;5.00;;
67751;SDS011;54551;51.068;5.826;2023-02-01T05:48:38;16.77;;;4.40;;
67751;SDS011;54551;51.068;5.826;2023-02-01T05:51:05;18.97;;;4.37;;
67751;SDS011;54551;51.068;5.826;2023-02-01T05:53:31;19.93;;;4.70;;
67751;SDS011;54551;51.068;5.826;2023-02-01T05:55:57;16.27;;;4.33;;
67751;SDS011;54551;51.068;5.826;2023-02-01T05:58:23;24.10;;;4.97;;
67751;SDS011;54551;51.068;5.826;2023-02-01T06:00:49;21.07;;;4.50;;
67751;SDS011;54551;51.068;5.826;2023-02-01T06:03:15;20.23;;;5.10;;
67751;SDS011;54551;51.068;5.826;2023-02-01T06:05:43;19.37;;;4.63;;
67751;SDS011;54551;51.068;5.826;2023-02-01T06:08:09;22.47;;;5.17;;
67751;SDS011;54551;51.068;5.826;2023-02-01T06:10:35;20.27;;;5.37;;
67751;SDS011;54551;51.068;5.826;2023-02-01T06:13:01;25.00;;;5.30;;
67751;SDS011;54551;51.068;5.826;2023-02-01T06:15:28;19.67;;;5.60;;
67751;SDS011;54551;51.068;5.826;2023-02-01T06:17:54;17.77;;;4.80;;
67751;SDS011;54551;51.068;5.826;2023-02-01T06:20:20;23.70;;;5.23;;
67751;SDS011;54551;51.068;5.826;2023-02-01T06:22:46;22.73;;;5.13;;
67751;SDS011;54551;51.068;5.826;2023-02-01T06:25:12;16.07;;;4.63;;
67751;SDS011;54551;51.068;5.826;2023-02-01T06:27:38;19.47;;;5.07;;
67751;SDS011;54551;51.068;5.826;2023-02-01T06:30:05;21.83;;;4.47;;
67751;SDS011;54551;51.068;5.826;2023-02-01T06:32:32;12.23;;;4.07;;
67751;SDS011;54551;51.068;5.826;2023-02-01T06:34:58;28.20;;;5.37;;
67751;SDS011;54551;51.068;5.826;2023-02-01T06:37:25;21.27;;;5.87;;
67751;SDS011;54551;51.068;5.826;2023-02-01T06:39:54;23.70;;;6.33;;
67751;SDS011;54551;51.068;5.826;2023-02-01T06:42:20;20.83;;;4.93;;
67751;SDS011;54551;51.068;5.826;2023-02-01T06:44:46;23.13;;;5.37;;
67751;SDS011;54551;51.068;5.826;2023-02-01T06:47:12;21.63;;;5.57;;
67751;SDS011;54551;51.068;5.826;2023-02-01T06:49:38;19.70;;;4.87;;
67751;SDS011;54551;51.068;5.826;2023-02-01T06:52:05;22.13;;;5.50;;
67751;SDS011;54551;51.068;5.826;2023-02-01T06:54:31;20.60;;;4.43;;
67751;SDS011;54551;51.068;5.826;2023-02-01T06:56:58;20.90;;;5.07;;
67751;SDS011;54551;51.068;5.826;2023-02-01T06:59:25;26.37;;;5.90;;
67751;SDS011;54551;51.068;5.826;2023-02-01T07:01:50;22.37;;;5.57;;
67751;SDS011;54551;51.068;5.826;2023-02-01T07:04:16;22.67;;;5.67;;
67751;SDS011;54551;51.068;5.826;2023-02-01T07:06:42;20.27;;;5.63;;
67751;SDS011;54551;51.068;5.826;2023-02-01T07:09:08;21.13;;;5.10;;
67751;SDS011;54551;51.068;5.826;2023-02-01T07:11:34;23.20;;;5.60;;
67751;SDS011;54551;51.068;5.826;2023-02-01T07:14:00;30.13;;;5.07;;
67751;SDS011;54551;51.068;5.826;2023-02-01T07:16:26;19.67;;;5.43;;
67751;SDS011;54551;51.068;5.826;2023-02-01T07:18:52;21.33;;;5.27;;
67751;SDS011;54551;51.068;5.826;2023-02-01T07:21:18;26.20;;;4.63;;
67751;SDS011;54551;51.068;5.826;2023-02-01T07:23:44;27.70;;;5.67;;
67751;SDS011;54551;51.068;5.826;2023-02-01T07:26:12;22.17;;;6.40;;
67751;SDS011;54551;51.068;5.826;2023-02-01T07:28:39;20.13;;;5.40;;
67751;SDS011;54551;51.068;5.826;2023-02-01T07:31:10;19.67;;;4.87;;
67751;SDS011;54551;51.068;5.826;2023-02-01T07:33:38;20.77;;;4.77;;
67751;SDS011;54551;51.068;5.826;2023-02-01T07:36:05;21.07;;;4.77;;
67751;SDS011;54551;51.068;5.826;2023-02-01T07:38:32;19.07;;;4.83;;
67751;SDS011;54551;51.068;5.826;2023-02-01T07:40:58;18.60;;;4.87;;
67751;SDS011;54551;51.068;5.826;2023-02-01T07:43:25;23.80;;;5.43;;
67751;SDS011;54551;51.068;5.826;2023-02-01T07:45:52;18.20;;;4.60;;
67751;SDS011;54551;51.068;5.826;2023-02-01T07:48:20;17.80;;;4.67;;
67751;SDS011;54551;51.068;5.826;2023-02-01T07:50:47;22.10;;;4.50;;
67751;SDS011;54551;51.068;5.826;2023-02-01T07:53:13;16.27;;;4.67;;
67751;SDS011;54551;51.068;5.826;2023-02-01T07:55:39;21.47;;;4.50;;
67751;SDS011;54551;51.068;5.826;2023-02-01T07:58:06;24.47;;;5.23;;
67751;SDS011;54551;51.068;5.826;2023-02-01T08:00:31;20.23;;;4.53;;
67751;SDS011;54551;51.068;5.826;2023-02-01T08:03:16;29.10;;;5.43;;
67751;SDS011;54551;51.068;5.826;2023-02-01T08:05:42;16.33;;;4.33;;
67751;SDS011;54551;51.068;5.826;2023-02-01T08:08:08;19.73;;;4.00;;
67751;SDS011;54551;51.068;5.826;2023-02-01T08:10:34;17.63;;;4.67;;
67751;SDS011;54551;51.068;5.826;2023-02-01T08:13:00;16.20;;;4.00;;
67751;SDS011;54551;51.068;5.826;2023-02-01T08:15:28;24.20;;;5.03;;
67751;SDS011;54551;51.068;5.826;2023-02-01T08:17:54;20.00;;;4.73;;
67751;SDS011;54551;51.068;5.826;2023-02-01T08:20:20;23.17;;;5.33;;
67751;SDS011;54551;51.068;5.826;2023-02-01T08:22:48;24.40;;;4.93;;
67751;SDS011;54551;51.068;5.826;2023-02-01T08:25:15;16.87;;;4.73;;
67751;SDS011;54551;51.068;5.826;2023-02-01T08:27:41;17.03;;;4.37;;
67751;SDS011;54551;51.068;5.826;2023-02-01T08:30:07;20.10;;;4.97;;
67751;SDS011;54551;51.068;5.826;2023-02-01T08:32:35;24.57;;;5.77;;
67751;SDS011;54551;51.068;5.826;2023-02-01T08:35:01;18.70;;;5.00;;
67751;SDS011;54551;51.068;5.826;2023-02-01T08:37:28;20.00;;;5.23;;
67751;SDS011;54551;51.068;5.826;2023-02-01T08:39:54;16.90;;;5.27;;
67751;SDS011;54551;51.068;5.826;2023-02-01T08:42:19;20.60;;;5.43;;
67751;SDS011;54551;51.068;5.826;2023-02-01T08:45:04;16.20;;;4.83;;
67751;SDS011;54551;51.068;5.826;2023-02-01T08:47:30;17.93;;;4.83;;
67751;SDS011;54551;51.068;5.826;2023-02-01T08:49:56;16.77;;;5.00;;
67751;SDS011;54551;51.068;5.826;2023-02-01T08:52:22;18.90;;;4.90;;
67751;SDS011;54551;51.068;5.826;2023-02-01T08:54:48;17.10;;;4.63;;
67751;SDS011;54551;51.068;5.826;2023-02-01T08:57:14;22.07;;;5.07;;
67751;SDS011;54551;51.068;5.826;2023-02-01T08:59:40;14.77;;;4.33;;
67751;SDS011;54551;51.068;5.826;2023-02-01T09:02:08;20.47;;;5.10;;
67751;SDS011;54551;51.068;5.826;2023-02-01T09:04:37;16.40;;;4.67;;
67751;SDS011;54551;51.068;5.826;2023-02-01T09:07:03;16.20;;;4.63;;
67751;SDS011;54551;51.068;5.826;2023-02-01T09:09:28;19.00;;;5.03;;
67751;SDS011;54551;51.068;5.826;2023-02-01T09:11:54;20.50;;;5.30;;
67751;SDS011;54551;51.068;5.826;2023-02-01T09:14:20;23.63;;;4.97;;
67751;SDS011;54551;51.068;5.826;2023-02-01T09:16:46;19.20;;;4.73;;
67751;SDS011;54551;51.068;5.826;2023-02-01T09:19:12;20.47;;;4.90;;
67751;SDS011;54551;51.068;5.826;2023-02-01T09:21:38;17.43;;;5.20;;
67751;SDS011;54551;51.068;5.826;2023-02-01T09:24:04;23.53;;;4.53;;
67751;SDS011;54551;51.068;5.826;2023-02-01T09:26:30;19.23;;;4.97;;
67751;SDS011;54551;51.068;5.826;2023-02-01T09:28:56;18.60;;;4.67;;
67751;SDS011;54551;51.068;5.826;2023-02-01T09:31:22;20.30;;;4.57;;
67751;SDS011;54551;51.068;5.826;2023-02-01T09:33:47;17.40;;;5.10;;
67751;SDS011;54551;51.068;5.826;2023-02-01T09:36:13;19.23;;;5.10;;
67751;SDS011;54551;51.068;5.826;2023-02-01T09:38:39;22.33;;;5.10;;
67751;SDS011;54551;51.068;5.826;2023-02-01T09:41:29;18.33;;;4.33;;
67751;SDS011;54551;51.068;5.826;2023-02-01T09:46:35;21.23;;;4.97;;
67751;SDS011;54551;51.068;5.826;2023-02-01T09:49:03;13.83;;;4.20;;
67751;SDS011;54551;51.068;5.826;2023-02-01T09:51:36;18.23;;;4.63;;
67751;SDS011;54551;51.068;5.826;2023-02-01T09:54:18;16.30;;;4.27;;
67751;SDS011;54551;51.068;5.826;2023-02-01T09:56:49;17.47;;;4.63;;
67751;SDS011;54551;51.068;5.826;2023-02-01T09:59:39;18.33;;;4.53;;
67751;SDS011;54551;51.068;5.826;2023-02-01T10:02:22;22.10;;;5.43;;
67751;SDS011;54551;51.068;5.826;2023-02-01T10:04:52;17.17;;;4.70;;
67751;SDS011;54551;51.068;5.826;2023-02-01T10:08:04;16.63;;;4.67;;
67751;SDS011;54551;51.068;5.826;2023-02-01T10:10:21;17.60;;;4.40;;
67751;SDS011;54551;51.068;5.826;2023-02-01T10:21:57;15.57;;;4.90;;
67751;SDS011;54551;51.068;5.826;2023-02-01T10:27:39;16.30;;;4.77;;
67751;SDS011;54551;51.068;5.826;2023-02-01T10:30:16;16.63;;;4.97;;
67751;SDS011;54551;51.068;5.826;2023-02-01T10:32:45;18.40;;;4.47;;
67751;SDS011;54551;51.068;5.826;2023-02-01T10:35:16;14.80;;;4.73;;
67751;SDS011;54551;51.068;5.826;2023-02-01T10:37:46;14.43;;;4.20;;
67751;SDS011;54551;51.068;5.826;2023-02-01T10:40:15;14.07;;;4.43;;
67751;SDS011;54551;51.068;5.826;2023-02-01T10:42:41;14.30;;;4.57;;
67751;SDS011;54551;51.068;5.826;2023-02-01T10:45:15;13.30;;;4.13;;
67751;SDS011;54551;51.068;5.826;2023-02-01T10:47:44;13.13;;;4.00;;
67751;SDS011;54551;51.068;5.826;2023-02-01T10:55:26;14.43;;;4.20;;
67751;SDS011;54551;51.068;5.826;2023-02-01T10:57:58;17.70;;;4.27;;
67751;SDS011;54551;51.068;5.826;2023-02-01T11:00:43;10.93;;;3.73;;
67751;SDS011;54551;51.068;5.826;2023-02-01T11:03:30;14.37;;;4.50;;
67751;SDS011;54551;51.068;5.826;2023-02-01T11:07:36;15.27;;;4.53;;
67751;SDS011;54551;51.068;5.826;2023-02-01T11:14:51;20.67;;;3.97;;
67751;SDS011;54551;51.068;5.826;2023-02-01T11:17:34;16.10;;;4.13;;
67751;SDS011;54551;51.068;5.826;2023-02-01T11:21:06;11.50;;;3.70;;
67751;SDS011;54551;51.068;5.826;2023-02-01T11:24:53;12.93;;;4.17;;
67751;SDS011;54551;51.068;5.826;2023-02-01T11:27:50;17.30;;;4.30;;
67751;SDS011;54551;51.068;5.826;2023-02-01T11:30:42;15.20;;;4.00;;
67751;SDS011;54551;51.068;5.826;2023-02-01T11:33:29;14.03;;;3.57;;
67751;SDS011;54551;51.068;5.826;2023-02-01T11:36:15;12.10;;;3.77;;
67751;SDS011;54551;51.068;5.826;2023-02-01T11:39:39;13.83;;;4.13;;
67751;SDS011;54551;51.068;5.826;2023-02-01T11:42:15;18.50;;;4.33;;
67751;SDS011;54551;51.068;5.826;2023-02-01T11:45:24;17.77;;;4.70;;
67751;SDS011;54551;51.068;5.826;2023-02-01T11:48:09;15.20;;;4.03;;
67751;SDS011;54551;51.068;5.826;2023-02-01T11:51:27;13.20;;;3.97;;
67751;SDS011;54551;51.068;5.826;2023-02-01T11:54:21;15.90;;;4.73;;
67751;SDS011;54551;51.068;5.826;2023-02-01T12:03:27;12.80;;;3.90;;
67751;SDS011;54551;51.068;5.826;2023-02-01T12:12:00;12.23;;;3.40;;
67751;SDS011;54551;51.068;5.826;2023-02-01T12:18:26;18.40;;;4.20;;
67751;SDS011;54551;51.068;5.826;2023-02-01T12:24:44;12.77;;;3.83;;
67751;SDS011;54551;51.068;5.826;2023-02-01T12:34:32;18.70;;;4.47;;
67751;SDS011;54551;51.068;5.826;2023-02-01T12:47:44;12.47;;;3.50;;
67751;SDS011;54551;51.068;5.826;2023-02-01T12:50:23;13.83;;;3.37;;
67751;SDS011;54551;51.068;5.826;2023-02-01T12:53:09;12.77;;;3.37;;
67751;SDS011;54551;51.068;5.826;2023-02-01T12:55:57;14.47;;;3.70;;
67751;SDS011;54551;51.068;5.826;2023-02-01T12:59:02;11.63;;;2.80;;
67751;SDS011;54551;51.068;5.826;2023-02-01T13:12:09;14.13;;;3.80;;
67751;SDS011;54551;51.068;5.826;2023-02-01T13:23:45;11.30;;;3.43;;
67751;SDS011;54551;51.068;5.826;2023-02-01T13:41:35;16.33;;;4.13;;
67751;SDS011;54551;51.068;5.826;2023-02-01T13:45:35;12.40;;;2.83;;
67751;SDS011;54551;51.068;5.826;2023-02-01T14:00:23;15.60;;;3.50;;
67751;SDS011;54551;51.068;5.826;2023-02-01T14:19:28;10.70;;;3.07;;
67751;SDS011;54551;51.068;5.826;2023-02-01T14:41:23;11.40;;;3.37;;
67751;SDS011;54551;51.068;5.826;2023-02-01T14:52:05;12.67;;;3.53;;
67751;SDS011;54551;51.068;5.826;2023-02-01T15:13:37;11.70;;;4.03;;
67751;SDS011;54551;51.068;5.826;2023-02-01T15:21:06;11.03;;;3.33;;
67751;SDS011;54551;51.068;5.826;2023-02-01T15:32:42;11.17;;;3.03;;
67751;SDS011;54551;51.068;5.826;2023-02-01T15:43:01;16.03;;;3.50;;
67751;SDS011;54551;51.068;5.826;2023-02-01T15:46:03;15.60;;;3.90;;
67751;SDS011;54551;51.068;5.826;2023-02-01T15:57:47;13.53;;;3.90;;
67751;SDS011;54551;51.068;5.826;2023-02-01T16:00:41;19.37;;;4.47;;
67751;SDS011;54551;51.068;5.826;2023-02-01T16:03:27;10.47;;;3.23;;
67751;SDS011;54551;51.068;5.826;2023-02-01T16:15:14;14.23;;;3.70;;
67751;SDS011;54551;51.068;5.826;2023-02-01T16:18:06;16.40;;;4.37;;
67751;SDS011;54551;51.068;5.826;2023-02-01T16:21:26;15.40;;;3.37;;
67751;SDS011;54551;51.068;5.826;2023-02-01T16:24:12;12.80;;;3.13;;
67751;SDS011;54551;51.068;5.826;2023-02-01T16:30:55;12.20;;;4.00;;
67751;SDS011;54551;51.068;5.826;2023-02-01T16:33:37;13.47;;;3.90;;
67751;SDS011;54551;51.068;5.826;2023-02-01T16:36:45;15.87;;;4.07;;
67751;SDS011;54551;51.068;5.826;2023-02-01T16:42:53;20.73;;;4.53;;
67751;SDS011;54551;51.068;5.826;2023-02-01T16:45:39;16.43;;;3.47;;
67751;SDS011;54551;51.068;5.826;2023-02-01T16:48:45;18.03;;;4.20;;
67751;SDS011;54551;51.068;5.826;2023-02-01T16:51:20;14.43;;;3.53;;
67751;SDS011;54551;51.068;5.826;2023-02-01T16:54:21;17.00;;;3.97;;
67751;SDS011;54551;51.068;5.826;2023-02-01T16:57:39;16.40;;;3.50;;
67751;SDS011;54551;51.068;5.826;2023-02-01T17:01:13;13.47;;;3.23;;
67751;SDS011;54551;51.068;5.826;2023-02-01T17:03:49;19.47;;;4.20;;
67751;SDS011;54551;51.068;5.826;2023-02-01T17:11:04;17.07;;;4.03;;
67751;SDS011;54551;51.068;5.826;2023-02-01T17:13:39;17.10;;;3.90;;
67751;SDS011;54551;51.068;5.826;2023-02-01T17:20:14;13.03;;;4.40;;
67751;SDS011;54551;51.068;5.826;2023-02-01T17:23:18;10.83;;;3.80;;
67751;SDS011;54551;51.068;5.826;2023-02-01T17:25:54;16.23;;;4.60;;
67751;SDS011;54551;51.068;5.826;2023-02-01T17:29:13;16.87;;;4.27;;
67751;SDS011;54551;51.068;5.826;2023-02-01T17:35:50;16.43;;;3.97;;
67751;SDS011;54551;51.068;5.826;2023-02-01T17:39:00;14.87;;;4.00;;
67751;SDS011;54551;51.068;5.826;2023-02-01T17:42:10;22.67;;;4.63;;
67751;SDS011;54551;51.068;5.826;2023-02-01T17:49:05;19.93;;;4.90;;
67751;SDS011;54551;51.068;5.826;2023-02-01T17:54:39;18.57;;;4.27;;
67751;SDS011;54551;51.068;5.826;2023-02-01T18:00:05;19.97;;;4.30;;
67751;SDS011;54551;51.068;5.826;2023-02-01T18:02:38;22.97;;;5.03;;
67751;SDS011;54551;51.068;5.826;2023-02-01T18:05:28;12.90;;;3.93;;
67751;SDS011;54551;51.068;5.826;2023-02-01T18:11:09;16.57;;;3.73;;
67751;SDS011;54551;51.068;5.826;2023-02-01T18:14:11;20.13;;;4.67;;
67751;SDS011;54551;51.068;5.826;2023-02-01T18:16:40;18.27;;;4.53;;
67751;SDS011;54551;51.068;5.826;2023-02-01T18:19:36;17.17;;;4.63;;
67751;SDS011;54551;51.068;5.826;2023-02-01T18:22:13;17.30;;;4.13;;
67751;SDS011;54551;51.068;5.826;2023-02-01T18:24:47;19.43;;;3.67;;
67751;SDS011;54551;51.068;5.826;2023-02-01T18:27:23;21.87;;;5.20;;
67751;SDS011;54551;51.068;5.826;2023-02-01T18:33:56;14.57;;;4.03;;
67751;SDS011;54551;51.068;5.826;2023-02-01T18:37:27;16.77;;;4.57;;
67751;SDS011;54551;51.068;5.826;2023-02-01T18:44:19;15.43;;;4.00;;
67751;SDS011;54551;51.068;5.826;2023-02-01T18:47:40;18.80;;;4.43;;
67751;SDS011;54551;51.068;5.826;2023-02-01T19:02:32;14.83;;;3.97;;
67751;SDS011;54551;51.068;5.826;2023-02-01T19:05:40;15.27;;;3.97;;
67751;SDS011;54551;51.068;5.826;2023-02-01T19:08:31;14.83;;;4.00;;
67751;SDS011;54551;51.068;5.826;2023-02-01T19:20:45;17.40;;;4.27;;
67751;SDS011;54551;51.068;5.826;2023-02-01T19:27:42;13.33;;;4.27;;
67751;SDS011;54551;51.068;5.826;2023-02-01T19:30:19;12.73;;;3.80;;
67751;SDS011;54551;51.068;5.826;2023-02-01T19:32:53;17.00;;;4.60;;
67751;SDS011;54551;51.068;5.826;2023-02-01T19:35:46;14.13;;;4.80;;
67751;SDS011;54551;51.068;5.826;2023-02-01T19:38:40;14.07;;;4.20;;
67751;SDS011;54551;51.068;5.826;2023-02-01T19:41:40;16.10;;;4.93;;
67751;SDS011;54551;51.068;5.826;2023-02-01T19:44:43;21.10;;;4.73;;
67751;SDS011;54551;51.068;5.826;2023-02-01T19:53:50;17.93;;;4.80;;
67751;SDS011;54551;51.068;5.826;2023-02-01T20:01:07;16.27;;;3.87;;
67751;SDS011;54551;51.068;5.826;2023-02-01T20:04:10;16.90;;;4.97;;
67751;SDS011;54551;51.068;5.826;2023-02-01T20:07:31;16.90;;;4.43;;
67751;SDS011;54551;51.068;5.826;2023-02-01T20:14:22;15.27;;;4.20;;
67751;SDS011;54551;51.068;5.826;2023-02-01T20:17:19;20.57;;;4.80;;
67751;SDS011;54551;51.068;5.826;2023-02-01T20:21:12;17.23;;;5.20;;
67751;SDS011;54551;51.068;5.826;2023-02-01T20:24:23;15.40;;;4.80;;
67751;SDS011;54551;51.068;5.826;2023-02-01T20:30:26;20.23;;;4.80;;
67751;SDS011;54551;51.068;5.826;2023-02-01T20:33:16;21.37;;;4.60;;
67751;SDS011;54551;51.068;5.826;2023-02-01T21:18:34;16.43;;;4.70;;
67751;SDS011;54551;51.068;5.826;2023-02-01T21:33:58;18.67;;;5.33;;
67751;SDS011;54551;51.068;5.826;2023-02-01T21:36:34;18.50;;;5.37;;
67751;SDS011;54551;51.068;5.826;2023-02-01T21:39:19;17.67;;;5.00;;
67751;SDS011;54551;51.068;5.826;2023-02-01T21:45:09;24.13;;;5.13;;
67751;SDS011;54551;51.068;5.826;2023-02-01T21:47:49;18.80;;;4.80;;
67751;SDS011;54551;51.068;5.826;2023-02-01T21:50:33;17.40;;;5.77;;
67751;SDS011;54551;51.068;5.826;2023-02-01T21:53:31;18.83;;;4.70;;
67751;SDS011;54551;51.068;5.826;2023-02-01T21:56:05;18.23;;;5.10;;
67751;SDS011;54551;51.068;5.826;2023-02-01T21:58:34;20.17;;;4.77;;
67751;SDS011;54551;51.068;5.826;2023-02-01T22:01:05;21.40;;;5.10;;
67751;SDS011;54551;51.068;5.826;2023-02-01T22:03:48;17.43;;;5.87;;